Time,TemperatureF,DewpointF,PressureIn,WindDirection,WindDirectionDegrees,WindSpeedMPH,WindSpeedGustMPH,Humidity,HourlyPrecipIn,Conditions,Clouds,dailyrainin,SoftwareType,DateUTC
2013-01-21 00:00:00,9.9,-0.5,30.22,WSW,240,2.0,2.0,62,0.00,,,0.00,Wunderground v.1.15,2013-01-21 06:00:00,
2013-01-21 00:05:00,10.0,-0.4,30.22,WSW,254,1.0,3.0,62,0.00,,,0.00,Wunderground v.1.15,2013-01-21 06:05:00,
2013-01-21 00:11:00,10.0,-0.4,30.22,WSW,254,1.0,3.0,62,0.00,,,0.00,Wunderground v.1.15,2013-01-21 06:11:00,
2013-01-21 00:16:00,10.0,-0.4,30.21,WSW,253,2.0,3.0,62,0.00,,,0.00,Wunderground v.1.15,2013-01-21 06:16:00,
2013-01-21 00:21:00,10.0,-0.4,30.21,WSW,256,1.0,10.0,62,0.00,,,0.00,Wunderground v.1.15,2013-01-21 06:21:00,
2013-01-21 00:27:00,10.0,-0.4,30.21,West,274,2.0,10.0,62,0.00,,,0.00,Wunderground v.1.15,2013-01-21 06:27:00,
2013-01-21 00:32:00,10.0,-0.4,30.20,WSW,254,2.0,5.0,62,0.00,,,0.00,Wunderground v.1.15,2013-01-21 06:32:00,
2013-01-21 00:37:00,10.0,-0.4,30.20,WSW,240,3.0,5.0,62,0.00,,,0.00,Wunderground v.1.15,2013-01-21 06:37:00,
2013-01-21 00:42:00,10.0,-0.4,30.20,WSW,257,2.0,3.0,62,0.00,,,0.00,Wunderground v.1.15,2013-01-21 06:42:00,
2013-01-21 00:47:00,10.0,-0.4,30.20,WSW,244,2.0,3.0,62,0.00,,,0.00,Wunderground v.1.15,2013-01-21 06:47:00,
2013-01-21 00:53:00,10.0,-0.4,30.20,WSW,258,2.0,3.0,62,0.00,,,0.00,Wunderground v.1.15,2013-01-21 06:53:00,
2013-01-21 00:58:00,10.0,-0.8,30.20,WSW,256,2.0,6.0,61,0.00,,,0.00,Wunderground v.1.15,2013-01-21 06:58:00,
2013-01-21 01:03:00,10.0,-1.1,30.20,West,275,3.0,6.0,60,0.00,,,0.00,Wunderground v.1.15,2013-01-21 07:03:00,
2013-01-21 01:08:00,9.9,-1.2,30.20,WSW,256,4.0,6.0,60,0.00,,,0.00,Wunderground v.1.15,2013-01-21 07:08:00,
2013-01-21 01:14:00,9.7,-2.1,30.20,WNW,285,4.0,6.0,58,0.00,,,0.00,Wunderground v.1.15,2013-01-21 07:14:00,
2013-01-21 01:19:00,9.5,-2.7,30.20,WNW,284,3.0,9.0,57,0.00,,,0.00,Wunderground v.1.15,2013-01-21 07:19:00,
2013-01-21 01:25:00,9.3,-2.9,30.20,West,268,2.0,3.0,57,0.00,,,0.00,Wunderground v.1.15,2013-01-21 07:25:00,
2013-01-21 01:31:00,9.2,-3.0,30.20,WSW,251,1.0,1.0,57,0.00,,,0.00,Wunderground v.1.15,2013-01-21 07:31:00,
2013-01-21 01:36:00,9.2,-3.0,30.20,WSW,250,2.0,5.0,57,0.00,,,0.00,Wunderground v.1.15,2013-01-21 07:36:00,
2013-01-21 01:41:00,9.0,-2.8,30.20,West,280,1.0,3.0,58,0.00,,,0.00,Wunderground v.1.15,2013-01-21 07:41:00,
2013-01-21 01:47:00,8.8,-3.0,30.20,West,280,3.0,17.0,58,0.00,,,0.00,Wunderground v.1.15,2013-01-21 07:47:00,
2013-01-21 01:53:00,8.8,-2.6,30.20,WNW,284,3.0,3.0,59,0.00,,,0.00,Wunderground v.1.15,2013-01-21 07:53:00,
2013-01-21 01:59:00,8.8,-2.3,30.20,WNW,287,1.0,6.0,60,0.00,,,0.00,Wunderground v.1.15,2013-01-21 07:59:00,
2013-01-21 02:04:00,8.6,-2.5,30.20,West,272,1.0,5.0,60,0.00,,,0.00,Wunderground v.1.15,2013-01-21 08:04:00,
2013-01-21 02:10:00,8.6,-2.5,30.20,West,280,1.0,3.0,60,0.00,,,0.00,Wunderground v.1.15,2013-01-21 08:10:00,
2013-01-21 02:15:00,8.6,-2.1,30.20,West,281,3.0,7.0,61,0.00,,,0.00,Wunderground v.1.15,2013-01-21 08:15:00,
2013-01-21 02:20:00,8.4,-2.0,30.20,West,280,3.0,3.0,62,0.00,,,0.00,Wunderground v.1.15,2013-01-21 08:20:00,
2013-01-21 02:26:00,8.3,-1.7,30.20,WNW,301,2.0,5.0,63,0.00,,,0.00,Wunderground v.1.15,2013-01-21 08:26:00,
2013-01-21 02:32:00,8.3,-1.4,30.20,West,271,3.0,6.0,64,0.00,,,0.00,Wunderground v.1.15,2013-01-21 08:32:00,
2013-01-21 02:37:00,8.1,-1.6,30.20,WNW,285,3.0,6.0,64,0.00,,,0.00,Wunderground v.1.15,2013-01-21 08:37:00,
2013-01-21 02:43:00,7.9,-1.8,30.20,WSW,244,2.0,7.0,64,0.00,,,0.00,Wunderground v.1.15,2013-01-21 08:43:00,
2013-01-21 02:49:00,7.7,-2.0,30.19,West,281,3.0,7.0,64,0.00,,,0.00,Wunderground v.1.15,2013-01-21 08:49:00,
2013-01-21 02:55:00,7.4,-2.6,30.19,West,271,3.0,4.0,63,0.00,,,0.00,Wunderground v.1.15,2013-01-21 08:55:00,
2013-01-21 03:01:00,7.2,-2.8,30.19,WNW,285,2.0,2.0,63,0.00,,,0.00,Wunderground v.1.15,2013-01-21 09:01:00,
2013-01-21 03:07:00,7.0,-3.3,30.19,WNW,295,3.0,5.0,62,0.00,,,0.00,Wunderground v.1.15,2013-01-21 09:07:00,
2013-01-21 03:13:00,7.0,-3.3,30.19,WNW,288,2.0,3.0,62,0.00,,,0.00,Wunderground v.1.15,2013-01-21 09:13:00,
2013-01-21 03:18:00,6.9,-3.7,30.19,WNW,292,1.0,6.0,61,0.00,,,0.00,Wunderground v.1.15,2013-01-21 09:18:00,
2013-01-21 03:23:00,6.7,-3.9,30.19,WNW,285,2.0,5.0,61,0.00,,,0.00,Wunderground v.1.15,2013-01-21 09:23:00,
2013-01-21 03:29:00,6.5,-4.1,30.19,WNW,287,1.0,5.0,61,0.00,,,0.00,Wunderground v.1.15,2013-01-21 09:29:00,
2013-01-21 03:35:00,6.5,-4.1,30.19,WNW,282,1.0,2.0,61,0.00,,,0.00,Wunderground v.1.15,2013-01-21 09:35:00,
2013-01-21 03:40:00,6.3,-4.3,30.19,West,278,0.0,0.0,61,0.00,,,0.00,Wunderground v.1.15,2013-01-21 09:40:00,
2013-01-21 03:45:00,6.3,-4.3,30.18,West,278,0.0,0.0,61,0.00,,,0.00,Wunderground v.1.15,2013-01-21 09:45:00,
2013-01-21 03:52:00,6.1,-4.5,30.18,West,280,0.0,0.0,61,0.00,,,0.00,Wunderground v.1.15,2013-01-21 09:52:00,
2013-01-21 03:57:00,6.1,-4.1,30.18,West,281,0.0,0.0,62,0.00,,,0.00,Wunderground v.1.15,2013-01-21 09:57:00,
2013-01-21 04:03:00,6.1,-4.1,30.18,West,280,0.0,0.0,62,0.00,,,0.00,Wunderground v.1.15,2013-01-21 10:03:00,
2013-01-21 04:08:00,6.1,-4.1,30.18,West,281,0.0,0.0,62,0.00,,,0.00,Wunderground v.1.15,2013-01-21 10:08:00,
2013-01-21 04:14:00,6.1,-3.8,30.18,West,281,0.0,0.0,63,0.00,,,0.00,Wunderground v.1.15,2013-01-21 10:14:00,
2013-01-21 04:19:00,6.1,-3.8,30.18,West,278,0.0,1.0,63,0.00,,,0.00,Wunderground v.1.15,2013-01-21 10:19:00,
2013-01-21 04:25:00,6.3,-3.3,30.18,WNW,294,0.0,3.0,64,0.00,,,0.00,Wunderground v.1.15,2013-01-21 10:25:00,
2013-01-21 04:31:00,6.5,-2.8,30.18,West,267,1.0,1.0,65,0.00,,,0.00,Wunderground v.1.15,2013-01-21 10:31:00,
2013-01-21 04:37:00,6.5,-2.5,30.18,West,268,0.0,1.0,66,0.00,,,0.00,Wunderground v.1.15,2013-01-21 10:37:00,
2013-01-21 04:42:00,6.7,-2.3,30.18,SW,224,0.0,0.0,66,0.00,,,0.00,Wunderground v.1.15,2013-01-21 10:42:00,
2013-01-21 04:47:00,6.7,-1.9,30.18,WSW,258,1.0,1.0,67,0.00,,,0.00,Wunderground v.1.15,2013-01-21 10:47:00,
2013-01-21 04:53:00,6.7,-1.9,30.18,West,280,1.0,5.0,67,0.00,,,0.00,Wunderground v.1.15,2013-01-21 10:53:00,
2013-01-21 04:59:00,6.5,-2.1,30.17,West,272,2.0,6.0,67,0.00,,,0.00,Wunderground v.1.15,2013-01-21 10:59:00,
2013-01-21 05:04:00,6.5,-2.1,30.17,West,267,3.0,6.0,67,0.00,,,0.00,Wunderground v.1.15,2013-01-21 11:04:00,
2013-01-21 05:09:00,6.3,-2.3,30.17,West,265,3.0,10.0,67,0.00,,,0.00,Wunderground v.1.15,2013-01-21 11:09:00,
2013-01-21 05:15:00,6.1,-2.5,30.18,WSW,251,2.0,5.0,67,0.00,,,0.00,Wunderground v.1.15,2013-01-21 11:15:00,
2013-01-21 05:21:00,6.1,-2.5,30.18,WSW,254,2.0,4.0,67,0.00,,,0.00,Wunderground v.1.15,2013-01-21 11:21:00,
2013-01-21 05:27:00,5.8,-2.8,30.18,WNW,288,3.0,6.0,67,0.00,,,0.00,Wunderground v.1.15,2013-01-21 11:27:00,
2013-01-21 05:32:00,5.6,-3.3,30.17,West,271,4.0,8.0,66,0.00,,,0.00,Wunderground v.1.15,2013-01-21 11:32:00,
2013-01-21 05:37:00,5.4,-3.5,30.17,WNW,289,5.0,11.0,66,0.00,,,0.00,Wunderground v.1.15,2013-01-21 11:37:00,
2013-01-21 05:43:00,5.0,-4.5,30.17,West,268,6.0,13.0,64,0.00,,,0.00,Wunderground v.1.15,2013-01-21 11:43:00,
2013-01-21 05:48:00,4.8,-4.7,30.18,WNW,292,6.0,13.0,64,0.00,,,0.00,Wunderground v.1.15,2013-01-21 11:48:00,
2013-01-21 05:54:00,4.7,-5.1,30.18,SW,233,5.0,8.0,63,0.00,,,0.00,Wunderground v.1.15,2013-01-21 11:54:00,
2013-01-21 05:59:00,4.5,-5.3,30.18,West,278,4.0,8.0,63,0.00,,,0.00,Wunderground v.1.15,2013-01-21 11:59:00,
2013-01-21 06:04:00,4.3,-5.5,30.18,WNW,301,3.0,6.0,63,0.00,,,0.00,Wunderground v.1.15,2013-01-21 12:04:00,
2013-01-21 06:10:00,4.1,-5.7,30.18,WSW,248,4.0,5.0,63,0.00,,,0.00,Wunderground v.1.15,2013-01-21 12:10:00,
2013-01-21 06:16:00,3.9,-6.2,30.19,West,261,5.0,6.0,62,0.00,,,0.00,Wunderground v.1.15,2013-01-21 12:16:00,
2013-01-21 06:22:00,3.5,-7.0,30.19,West,270,6.0,6.0,61,0.00,,,0.00,Wunderground v.1.15,2013-01-21 12:22:00,
2013-01-21 06:27:00,3.4,-7.4,30.19,West,278,6.0,11.0,60,0.00,,,0.00,Wunderground v.1.15,2013-01-21 12:27:00,
2013-01-21 06:33:00,3.2,-7.6,30.20,WSW,256,5.0,5.0,60,0.00,,,0.00,Wunderground v.1.15,2013-01-21 12:33:00,
2013-01-21 06:39:00,3.0,-7.8,30.20,West,270,4.0,10.0,60,0.00,,,0.00,Wunderground v.1.15,2013-01-21 12:39:00,
2013-01-21 06:44:00,2.8,-8.0,30.20,West,275,5.0,6.0,60,0.00,,,0.00,Wunderground v.1.15,2013-01-21 12:44:00,
2013-01-21 06:49:00,2.6,-8.1,30.20,West,274,4.0,6.0,60,0.00,,,0.00,Wunderground v.1.15,2013-01-21 12:49:00,
2013-01-21 06:55:00,2.6,-7.8,30.20,WSW,258,3.0,6.0,61,0.00,,,0.00,Wunderground v.1.15,2013-01-21 12:55:00,
2013-01-21 07:01:00,2.4,-8.0,30.20,WNW,288,3.0,7.0,61,0.00,,,0.00,Wunderground v.1.15,2013-01-21 13:01:00,
2013-01-21 07:07:00,2.2,-7.9,30.20,West,260,3.0,7.0,62,0.00,,,0.00,Wunderground v.1.15,2013-01-21 13:07:00,
2013-01-21 07:13:00,2.2,-7.5,30.20,WNW,291,3.0,3.0,63,0.00,,,0.00,Wunderground v.1.15,2013-01-21 13:13:00,
2013-01-21 07:19:00,2.2,-7.2,30.21,West,267,3.0,5.0,64,0.00,,,0.00,Wunderground v.1.15,2013-01-21 13:19:00,
2013-01-21 07:25:00,2.2,-7.2,30.21,NW,312,3.0,10.0,64,0.00,,,0.00,Wunderground v.1.15,2013-01-21 13:25:00,
2013-01-21 07:30:00,2.0,-7.1,30.22,West,280,2.0,6.0,65,0.00,,,0.00,Wunderground v.1.15,2013-01-21 13:30:00,
2013-01-21 07:35:00,2.0,-7.1,30.22,WNW,288,4.0,12.0,65,0.00,,,0.00,Wunderground v.1.15,2013-01-21 13:35:00,
2013-01-21 07:40:00,1.8,-7.6,30.22,WNW,301,5.0,5.0,64,0.00,,,0.00,Wunderground v.1.15,2013-01-21 13:40:00,
2013-01-21 07:46:00,1.8,-7.6,30.22,West,277,5.0,8.0,64,0.00,,,0.00,Wunderground v.1.15,2013-01-21 13:46:00,
2013-01-21 07:52:00,1.7,-8.0,30.22,West,275,6.0,8.0,63,0.00,,,0.00,Wunderground v.1.15,2013-01-21 13:52:00,
2013-01-21 07:57:00,1.7,-8.3,30.22,NNW,344,7.0,12.0,62,0.00,,,0.00,Wunderground v.1.15,2013-01-21 13:57:00,
2013-01-21 08:03:00,1.7,-8.7,30.23,WNW,296,6.0,10.0,61,0.00,,,0.00,Wunderground v.1.15,2013-01-21 14:03:00,
2013-01-21 08:12:00,1.7,-9.0,30.23,West,280,6.0,6.0,60,0.00,,,0.00,Wunderground v.1.15,2013-01-21 14:12:00,
2013-01-21 08:17:00,1.7,-8.7,30.24,WNW,299,4.0,6.0,61,0.00,,,0.00,Wunderground v.1.15,2013-01-21 14:17:00,
2013-01-21 08:23:00,1.8,-7.9,30.24,West,265,3.0,7.0,63,0.00,,,0.00,Wunderground v.1.15,2013-01-21 14:23:00,
2013-01-21 08:28:00,1.8,-7.9,30.24,WSW,254,3.0,7.0,63,0.00,,,0.00,Wunderground v.1.15,2013-01-21 14:28:00,
2013-01-21 08:34:00,1.8,-7.6,30.24,WNW,282,4.0,8.0,64,0.00,,,0.00,Wunderground v.1.15,2013-01-21 14:34:00,
2013-01-21 08:39:00,1.8,-7.6,30.24,WSW,251,4.0,8.0,64,0.00,,,0.00,Wunderground v.1.15,2013-01-21 14:39:00,
2013-01-21 08:46:00,1.8,-7.6,30.25,West,272,3.0,5.0,64,0.00,,,0.00,Wunderground v.1.15,2013-01-21 14:46:00,
2013-01-21 08:51:00,1.8,-7.3,30.25,WSW,254,3.0,6.0,65,0.00,,,0.00,Wunderground v.1.15,2013-01-21 14:51:00,
2013-01-21 08:57:00,2.0,-7.1,30.25,WNW,289,4.0,7.0,65,0.00,,,0.00,Wunderground v.1.15,2013-01-21 14:57:00,
2013-01-21 09:03:00,1.8,-7.6,30.25,WNW,296,5.0,7.0,64,0.00,,,0.00,Wunderground v.1.15,2013-01-21 15:03:00,
2013-01-21 09:08:00,1.8,-7.9,30.25,WSW,237,5.0,7.0,63,0.00,,,0.00,Wunderground v.1.15,2013-01-21 15:08:00,
2013-01-21 09:14:00,2.0,-7.7,30.26,WNW,289,5.0,7.0,63,0.00,,,0.00,Wunderground v.1.15,2013-01-21 15:14:00,
2013-01-21 09:20:00,1.8,-7.9,30.26,WSW,237,6.0,6.0,63,0.00,,,0.00,Wunderground v.1.15,2013-01-21 15:20:00,
2013-01-21 09:25:00,1.8,-7.9,30.26,NW,312,5.0,6.0,63,0.00,,,0.00,Wunderground v.1.15,2013-01-21 15:25:00,
2013-01-21 09:30:00,1.8,-7.9,30.26,West,274,4.0,4.0,63,0.00,,,0.00,Wunderground v.1.15,2013-01-21 15:30:00,
2013-01-21 09:36:00,2.0,-8.0,30.26,WNW,292,4.0,7.0,62,0.00,,,0.00,Wunderground v.1.15,2013-01-21 15:36:00,
2013-01-21 09:42:00,2.0,-8.4,30.26,SW,234,5.0,12.0,61,0.00,,,0.00,Wunderground v.1.15,2013-01-21 15:42:00,
2013-01-21 09:47:00,2.0,-8.7,30.26,West,280,6.0,12.0,60,0.00,,,0.00,Wunderground v.1.15,2013-01-21 15:47:00,
2013-01-21 09:53:00,2.0,-8.7,30.26,WNW,296,6.0,7.0,60,0.00,,,0.00,Wunderground v.1.15,2013-01-21 15:53:00,
2013-01-21 09:58:00,2.0,-8.7,30.26,West,267,6.0,11.0,60,0.00,,,0.00,Wunderground v.1.15,2013-01-21 15:58:00,
2013-01-21 10:04:00,2.0,-9.1,30.27,West,263,5.0,6.0,59,0.00,,,0.00,Wunderground v.1.15,2013-01-21 16:04:00,
2013-01-21 10:10:00,2.2,-8.9,30.27,West,271,4.0,4.0,59,0.00,,,0.00,Wunderground v.1.15,2013-01-21 16:10:00,
2013-01-21 10:16:00,2.6,-8.5,30.27,WNW,287,4.0,6.0,59,0.00,,,0.00,Wunderground v.1.15,2013-01-21 16:16:00,
2013-01-21 10:21:00,3.2,-8.3,30.27,West,278,3.0,4.0,58,0.00,,,0.00,Wunderground v.1.15,2013-01-21 16:21:00,
2013-01-21 10:27:00,3.5,-8.7,30.27,WSW,258,4.0,7.0,56,0.00,,,0.00,Wunderground v.1.15,2013-01-21 16:27:00,
2013-01-21 10:32:00,4.1,-8.5,30.27,West,265,5.0,6.0,55,0.00,,,0.00,Wunderground v.1.15,2013-01-21 16:32:00,
2013-01-21 10:38:00,4.5,-8.1,30.27,West,281,5.0,13.0,55,0.00,,,0.00,Wunderground v.1.15,2013-01-21 16:38:00,
2013-01-21 10:44:00,5.4,-6.9,30.27,WSW,254,3.0,5.0,56,0.00,,,0.00,Wunderground v.1.15,2013-01-21 16:44:00,
2013-01-21 10:49:00,6.0,-7.1,30.27,West,281,3.0,7.0,54,0.00,,,0.00,Wunderground v.1.15,2013-01-21 16:49:00,
2013-01-21 10:54:00,6.0,-7.5,30.27,West,280,4.0,7.0,53,0.00,,,0.00,Wunderground v.1.15,2013-01-21 16:54:00,
2013-01-21 11:00:00,6.0,-7.5,30.27,West,267,4.0,5.0,53,0.00,,,0.00,Wunderground v.1.15,2013-01-21 17:00:00,
2013-01-21 11:06:00,6.0,-7.9,30.27,West,260,4.0,10.0,52,0.00,,,0.00,Wunderground v.1.15,2013-01-21 17:06:00,
2013-01-21 11:11:00,6.0,-8.3,30.27,WNW,284,5.0,5.0,51,0.00,,,0.00,Wunderground v.1.15,2013-01-21 17:11:00,
2013-01-21 11:16:00,6.0,-8.3,30.26,WNW,288,4.0,8.0,51,0.00,,,0.00,Wunderground v.1.15,2013-01-21 17:16:00,
2013-01-21 11:22:00,5.8,-8.5,30.26,West,267,4.0,4.0,51,0.00,,,0.00,Wunderground v.1.15,2013-01-21 17:22:00,
2013-01-21 11:27:00,6.0,-8.3,30.26,WSW,253,4.0,5.0,51,0.00,,,0.00,Wunderground v.1.15,2013-01-21 17:27:00,
2013-01-21 11:33:00,6.3,-7.6,30.25,WSW,258,4.0,8.0,52,0.00,,,0.00,Wunderground v.1.15,2013-01-21 17:33:00,
2013-01-21 11:38:00,6.5,-7.8,30.25,WNW,287,4.0,8.0,51,0.00,,,0.00,Wunderground v.1.15,2013-01-21 17:38:00,
2013-01-21 11:44:00,6.5,-8.2,30.25,WNW,294,4.0,7.0,50,0.00,,,0.00,Wunderground v.1.15,2013-01-21 17:44:00,
2013-01-21 11:50:00,6.7,-7.6,30.25,NW,320,5.0,7.0,51,0.00,,,0.00,Wunderground v.1.15,2013-01-21 17:50:00,
2013-01-21 11:56:00,6.9,-8.3,30.25,WSW,248,5.0,8.0,49,0.00,,,0.00,Wunderground v.1.15,2013-01-21 17:56:00,
2013-01-21 12:01:00,7.2,-8.0,30.25,WSW,256,5.0,8.0,49,0.00,,,0.00,Wunderground v.1.15,2013-01-21 18:01:00,
2013-01-21 12:07:00,7.2,-8.0,30.25,West,281,5.0,8.0,49,0.00,,,0.00,Wunderground v.1.15,2013-01-21 18:07:00,
2013-01-21 12:12:00,7.0,-9.5,30.25,West,267,6.0,11.0,46,0.00,,,0.00,Wunderground v.1.15,2013-01-21 18:12:00,
2013-01-21 12:19:00,7.2,-8.0,30.25,WNW,282,6.0,11.0,49,0.00,,,0.00,Wunderground v.1.15,2013-01-21 18:19:00,
2013-01-21 12:24:00,7.2,-8.4,30.25,WNW,302,6.0,16.0,48,0.00,,,0.00,Wunderground v.1.15,2013-01-21 18:24:00,
2013-01-21 12:29:00,7.0,-8.6,30.24,WSW,254,7.0,16.0,48,0.00,,,0.00,Wunderground v.1.15,2013-01-21 18:29:00,
2013-01-21 12:34:00,7.0,-9.0,30.24,West,280,7.0,13.0,47,0.00,,,0.00,Wunderground v.1.15,2013-01-21 18:34:00,
2013-01-21 12:40:00,7.0,-8.6,30.24,West,263,7.0,7.0,48,0.00,,,0.00,Wunderground v.1.15,2013-01-21 18:40:00,
2013-01-21 12:45:00,7.2,-8.4,30.23,West,275,6.0,8.0,48,0.00,,,0.00,Wunderground v.1.15,2013-01-21 18:45:00,
2013-01-21 12:50:00,7.0,-9.0,30.23,West,264,5.0,5.0,47,0.00,,,0.00,Wunderground v.1.15,2013-01-21 18:50:00,
2013-01-21 12:56:00,7.2,-8.8,30.23,WSW,243,4.0,5.0,47,0.00,,,0.00,Wunderground v.1.15,2013-01-21 18:56:00,
2013-01-21 13:01:00,7.0,-9.0,30.23,West,274,4.0,8.0,47,0.00,,,0.00,Wunderground v.1.15,2013-01-21 19:01:00,
2013-01-21 13:07:00,6.9,-9.1,30.23,West,280,5.0,8.0,47,0.00,,,0.00,Wunderground v.1.15,2013-01-21 19:07:00,
2013-01-21 13:12:00,6.9,-9.1,30.23,WNW,295,5.0,8.0,47,0.00,,,0.00,Wunderground v.1.15,2013-01-21 19:12:00,
2013-01-21 13:17:00,6.5,-9.5,30.23,West,267,5.0,10.0,47,0.00,,,0.00,Wunderground v.1.15,2013-01-21 19:17:00,
2013-01-21 13:23:00,6.5,-9.1,30.23,West,265,4.0,5.0,48,0.00,,,0.00,Wunderground v.1.15,2013-01-21 19:23:00,
2013-01-21 13:29:00,6.7,-8.4,30.23,NW,319,4.0,7.0,49,0.00,,,0.00,Wunderground v.1.15,2013-01-21 19:29:00,
2013-01-21 13:34:00,6.5,-9.1,30.23,West,260,4.0,6.0,48,0.00,,,0.00,Wunderground v.1.15,2013-01-21 19:34:00,
2013-01-21 13:39:00,6.7,-8.4,30.23,WNW,288,3.0,14.0,49,0.00,,,0.00,Wunderground v.1.15,2013-01-21 19:39:00,
2013-01-21 13:45:00,6.7,-8.9,30.23,WNW,295,5.0,11.0,48,0.00,,,0.00,Wunderground v.1.15,2013-01-21 19:45:00,
2013-01-21 13:51:00,6.3,-9.7,30.23,WNW,301,7.0,11.0,47,0.00,,,0.00,Wunderground v.1.15,2013-01-21 19:51:00,
2013-01-21 13:56:00,6.0,-10.4,30.23,West,280,7.0,11.0,46,0.00,,,0.00,Wunderground v.1.15,2013-01-21 19:56:00,
2013-01-21 14:01:00,6.0,-9.5,30.23,WSW,258,5.0,7.0,48,0.00,,,0.00,Wunderground v.1.15,2013-01-21 20:01:00,
2013-01-21 14:07:00,6.0,-9.5,30.23,WNW,294,5.0,8.0,48,0.00,,,0.00,Wunderground v.1.15,2013-01-21 20:07:00,
2013-01-21 14:14:00,6.0,-9.1,30.24,WNW,296,5.0,6.0,49,0.00,,,0.00,Wunderground v.1.15,2013-01-21 20:14:00,
2013-01-21 14:19:00,6.1,-9.0,30.24,WSW,250,4.0,8.0,49,0.00,,,0.00,Wunderground v.1.15,2013-01-21 20:19:00,
2013-01-21 14:24:00,5.8,-9.7,30.24,West,264,5.0,7.0,48,0.00,,,0.00,Wunderground v.1.15,2013-01-21 20:24:00,
2013-01-21 14:29:00,5.8,-9.7,30.24,WNW,288,5.0,7.0,48,0.00,,,0.00,Wunderground v.1.15,2013-01-21 20:29:00,
2013-01-21 14:35:00,5.8,-9.7,30.24,WSW,240,5.0,7.0,48,0.00,,,0.00,Wunderground v.1.15,2013-01-21 20:35:00,
2013-01-21 14:40:00,5.8,-8.9,30.24,West,272,4.0,4.0,50,0.00,,,0.00,Wunderground v.1.15,2013-01-21 20:40:00,
2013-01-21 14:45:00,6.0,-8.3,30.24,WNW,282,4.0,14.0,51,0.00,,,0.00,Wunderground v.1.15,2013-01-21 20:45:00,
2013-01-21 14:50:00,6.1,-8.6,30.24,West,267,4.0,4.0,50,0.00,,,0.00,Wunderground v.1.15,2013-01-21 20:50:00,
2013-01-21 14:55:00,6.1,-8.6,30.24,West,270,4.0,5.0,50,0.00,,,0.00,Wunderground v.1.15,2013-01-21 20:55:00,
2013-01-21 15:00:00,6.1,-8.6,30.24,WNW,291,3.0,3.0,50,0.00,,,0.00,Wunderground v.1.15,2013-01-21 21:00:00,
2013-01-21 15:06:00,6.0,-9.1,30.24,WNW,296,3.0,7.0,49,0.00,,,0.00,Wunderground v.1.15,2013-01-21 21:06:00,
2013-01-21 15:11:00,6.0,-9.1,30.24,WNW,294,4.0,10.0,49,0.00,,,0.00,Wunderground v.1.15,2013-01-21 21:11:00,
2013-01-21 15:16:00,5.8,-10.1,30.24,NW,304,4.0,13.0,47,0.00,,,0.00,Wunderground v.1.15,2013-01-21 21:16:00,
2013-01-21 15:22:00,6.0,-9.5,30.24,WSW,257,4.0,5.0,48,0.00,,,0.00,Wunderground v.1.15,2013-01-21 21:22:00,
2013-01-21 15:27:00,6.0,-9.9,30.24,WNW,288,3.0,7.0,47,0.00,,,0.00,Wunderground v.1.15,2013-01-21 21:27:00,
2013-01-21 15:32:00,6.0,-9.9,30.25,WSW,251,4.0,4.0,47,0.00,,,0.00,Wunderground v.1.15,2013-01-21 21:32:00,
2013-01-21 15:38:00,6.0,-9.9,30.25,WSW,253,3.0,8.0,47,0.00,,,0.00,Wunderground v.1.15,2013-01-21 21:38:00,
2013-01-21 15:44:00,5.6,-10.3,30.25,West,268,3.0,8.0,47,0.00,,,0.00,Wunderground v.1.15,2013-01-21 21:44:00,
2013-01-21 15:49:00,5.4,-10.5,30.25,SW,227,3.0,8.0,47,0.00,,,0.00,Wunderground v.1.15,2013-01-21 21:49:00,
2013-01-21 15:55:00,5.2,-10.7,30.25,SW,230,3.0,6.0,47,0.00,,,0.00,Wunderground v.1.15,2013-01-21 21:55:00,
2013-01-21 16:01:00,5.0,-10.9,30.25,West,270,4.0,10.0,47,0.00,,,0.00,Wunderground v.1.15,2013-01-21 22:01:00,
2013-01-21 16:07:00,4.8,-11.1,30.25,WNW,295,6.0,10.0,47,0.00,,,0.00,Wunderground v.1.15,2013-01-21 22:07:00,
2013-01-21 16:12:00,4.8,-10.6,30.25,WNW,291,4.0,4.0,48,0.00,,,0.00,Wunderground v.1.15,2013-01-21 22:12:00,
2013-01-21 16:18:00,4.7,-10.7,30.25,SW,234,4.0,12.0,48,0.00,,,0.00,Wunderground v.1.15,2013-01-21 22:18:00,
2013-01-21 16:24:00,4.3,-11.1,30.25,WNW,284,5.0,7.0,48,0.00,,,0.00,Wunderground v.1.15,2013-01-21 22:24:00,
2013-01-21 16:30:00,4.1,-11.3,30.26,WNW,285,4.0,4.0,48,0.00,,,0.00,Wunderground v.1.15,2013-01-21 22:30:00,
2013-01-21 16:35:00,3.9,-11.5,30.26,WNW,287,4.0,4.0,48,0.00,,,0.00,Wunderground v.1.15,2013-01-21 22:35:00,
2013-01-21 16:40:00,3.7,-11.6,30.26,WNW,282,4.0,4.0,48,0.00,,,0.00,Wunderground v.1.15,2013-01-21 22:40:00,
2013-01-21 16:46:00,3.5,-11.8,30.26,West,281,5.0,14.0,48,0.00,,,0.00,Wunderground v.1.15,2013-01-21 22:46:00,
2013-01-21 16:52:00,3.4,-11.9,30.26,West,270,4.0,6.0,48,0.00,,,0.00,Wunderground v.1.15,2013-01-21 22:52:00,
2013-01-21 16:57:00,3.2,-11.7,30.26,West,277,3.0,6.0,49,0.00,,,0.00,Wunderground v.1.15,2013-01-21 22:57:00,
2013-01-21 17:02:00,3.0,-11.9,30.26,WSW,243,2.0,3.0,49,0.00,,,0.00,Wunderground v.1.15,2013-01-21 23:02:00,
2013-01-21 17:07:00,3.0,-11.9,30.26,WNW,284,3.0,4.0,49,0.00,,,0.00,Wunderground v.1.15,2013-01-21 23:07:00,
2013-01-21 17:13:00,2.8,-11.7,30.26,WSW,257,3.0,4.0,50,0.00,,,0.00,Wunderground v.1.15,2013-01-21 23:13:00,
2013-01-21 17:19:00,2.6,-11.8,30.26,WNW,292,3.0,7.0,50,0.00,,,0.00,Wunderground v.1.15,2013-01-21 23:19:00,
2013-01-21 17:24:00,2.4,-11.6,30.26,WSW,253,3.0,5.0,51,0.00,,,0.00,Wunderground v.1.15,2013-01-21 23:24:00,
2013-01-21 17:29:00,2.4,-11.6,30.27,WSW,248,3.0,5.0,51,0.00,,,0.00,Wunderground v.1.15,2013-01-21 23:29:00,
2013-01-21 17:34:00,2.2,-11.4,30.27,West,268,2.0,2.0,52,0.00,,,0.00,Wunderground v.1.15,2013-01-21 23:34:00,
2013-01-21 17:39:00,2.2,-11.4,30.27,West,270,2.0,5.0,52,0.00,,,0.00,Wunderground v.1.15,2013-01-21 23:39:00,
2013-01-21 17:45:00,2.0,-11.6,30.27,WSW,254,1.0,6.0,52,0.00,,,0.00,Wunderground v.1.15,2013-01-21 23:45:00,
2013-01-21 17:50:00,2.0,-11.6,30.27,WNW,288,2.0,2.0,52,0.00,,,0.00,Wunderground v.1.15,2013-01-21 23:50:00,
2013-01-21 17:55:00,2.0,-11.6,30.27,SW,226,2.0,4.0,52,0.00,,,0.00,Wunderground v.1.15,2013-01-21 23:55:00,
2013-01-21 18:00:00,1.8,-11.8,30.28,West,267,2.0,2.0,52,0.00,,,0.00,Wunderground v.1.15,2013-01-22 00:00:00,
2013-01-21 18:05:00,1.8,-11.4,30.28,WNW,282,2.0,4.0,53,0.00,,,0.00,Wunderground v.1.15,2013-01-22 00:05:00,
2013-01-21 18:11:00,1.8,-11.4,30.28,West,281,1.0,3.0,53,0.00,,,0.00,Wunderground v.1.15,2013-01-22 00:11:00,
2013-01-21 18:16:00,1.8,-11.4,30.28,West,275,1.0,3.0,53,0.00,,,0.00,Wunderground v.1.15,2013-01-22 00:16:00,
2013-01-21 18:22:00,1.7,-11.1,30.28,West,271,0.0,1.0,54,0.00,,,0.00,Wunderground v.1.15,2013-01-22 00:22:00,
2013-01-21 18:27:00,1.7,-11.1,30.28,WSW,256,0.0,3.0,54,0.00,,,0.00,Wunderground v.1.15,2013-01-22 00:27:00,
2013-01-21 18:33:00,1.7,-11.1,30.28,WNW,284,1.0,3.0,54,0.00,,,0.00,Wunderground v.1.15,2013-01-22 00:33:00,
2013-01-21 18:38:00,1.7,-11.1,30.28,WSW,247,1.0,3.0,54,0.00,,,0.00,Wunderground v.1.15,2013-01-22 00:38:00,
2013-01-21 18:44:00,1.5,-11.3,30.28,West,277,1.0,4.0,54,0.00,,,0.00,Wunderground v.1.15,2013-01-22 00:44:00,
2013-01-21 18:49:00,1.5,-11.3,30.28,WSW,253,2.0,4.0,54,0.00,,,0.00,Wunderground v.1.15,2013-01-22 00:49:00,
2013-01-21 18:55:00,1.5,-11.0,30.28,WSW,246,2.0,3.0,55,0.00,,,0.00,Wunderground v.1.15,2013-01-22 00:55:00,
2013-01-21 19:00:00,1.5,-11.0,30.28,West,278,2.0,2.0,55,0.00,,,0.00,Wunderground v.1.15,2013-01-22 01:00:00,
2013-01-21 19:06:00,1.3,-11.1,30.28,WSW,250,2.0,2.0,55,0.00,,,0.00,Wunderground v.1.15,2013-01-22 01:06:00,
2013-01-21 19:11:00,1.3,-11.1,30.28,SW,232,1.0,1.0,55,0.00,,,0.00,Wunderground v.1.15,2013-01-22 01:11:00,
2013-01-21 19:16:00,1.3,-11.1,30.30,West,260,1.0,8.0,55,0.00,,,0.00,Wunderground v.1.15,2013-01-22 01:16:00,
2013-01-21 19:22:00,1.1,-11.0,30.30,WSW,243,2.0,2.0,56,0.00,,,0.00,Wunderground v.1.15,2013-01-22 01:22:00,
2013-01-21 19:27:00,1.1,-11.0,30.30,WSW,257,2.0,3.0,56,0.00,,,0.00,Wunderground v.1.15,2013-01-22 01:27:00,
2013-01-21 19:32:00,1.1,-11.0,30.29,NW,304,1.0,3.0,56,0.00,,,0.00,Wunderground v.1.15,2013-01-22 01:32:00,
2013-01-21 19:37:00,1.1,-11.0,30.29,West,277,1.0,3.0,56,0.00,,,0.00,Wunderground v.1.15,2013-01-22 01:37:00,
2013-01-21 19:42:00,1.1,-11.0,30.29,WSW,257,1.0,1.0,56,0.00,,,0.00,Wunderground v.1.15,2013-01-22 01:42:00,
2013-01-21 19:47:00,1.1,-11.0,30.30,West,263,1.0,2.0,56,0.00,,,0.00,Wunderground v.1.15,2013-01-22 01:47:00,
2013-01-21 19:52:00,0.9,-11.2,30.30,West,267,1.0,1.0,56,0.00,,,0.00,Wunderground v.1.15,2013-01-22 01:52:00,
2013-01-21 19:57:00,0.9,-11.2,30.30,West,268,1.0,2.0,56,0.00,,,0.00,Wunderground v.1.15,2013-01-22 01:57:00,
2013-01-21 20:03:00,0.9,-10.8,30.30,West,277,1.0,3.0,57,0.00,,,0.00,Wunderground v.1.15,2013-01-22 02:03:00,
2013-01-21 20:09:00,0.7,-11.0,30.30,West,277,2.0,8.0,57,0.00,,,0.00,Wunderground v.1.15,2013-01-22 02:09:00,
2013-01-21 20:15:00,0.7,-11.3,30.30,West,278,2.0,4.0,56,0.00,,,0.00,Wunderground v.1.15,2013-01-22 02:15:00,
2013-01-21 20:20:00,0.5,-11.5,30.30,WNW,282,2.0,4.0,56,0.00,,,0.00,Wunderground v.1.15,2013-01-22 02:20:00,
2013-01-21 20:26:00,0.5,-11.5,30.30,West,263,3.0,6.0,56,0.00,,,0.00,Wunderground v.1.15,2013-01-22 02:26:00,
2013-01-21 20:31:00,0.5,-11.5,30.30,West,261,3.0,3.0,56,0.00,,,0.00,Wunderground v.1.15,2013-01-22 02:31:00,
2013-01-21 20:37:00,0.3,-11.7,30.30,West,263,3.0,6.0,56,0.00,,,0.00,Wunderground v.1.15,2013-01-22 02:37:00,
2013-01-21 20:43:00,0.3,-11.7,30.30,WNW,291,3.0,8.0,56,0.00,,,0.00,Wunderground v.1.15,2013-01-22 02:43:00,
2013-01-21 20:48:00,0.3,-11.7,30.31,WNW,292,2.0,8.0,56,0.00,,,0.00,Wunderground v.1.15,2013-01-22 02:48:00,
2013-01-21 20:53:00,0.3,-11.7,30.31,West,281,1.0,2.0,56,0.00,,,0.00,Wunderground v.1.15,2013-01-22 02:53:00,
2013-01-21 20:58:00,0.3,-11.7,30.31,WNW,282,1.0,6.0,56,0.00,,,0.00,Wunderground v.1.15,2013-01-22 02:58:00,
2013-01-21 21:03:00,0.1,-11.6,30.31,WNW,294,2.0,6.0,57,0.00,,,0.00,Wunderground v.1.15,2013-01-22 03:03:00,
2013-01-21 21:09:00,0.1,-11.6,30.31,West,278,1.0,6.0,57,0.00,,,0.00,Wunderground v.1.15,2013-01-22 03:09:00,
2013-01-21 21:14:00,0.1,-11.6,30.31,NW,309,1.0,5.0,57,0.00,,,0.00,Wunderground v.1.15,2013-01-22 03:14:00,
2013-01-21 21:19:00,0.1,-11.6,30.31,West,281,2.0,5.0,57,0.00,,,0.00,Wunderground v.1.15,2013-01-22 03:19:00,
2013-01-21 21:25:00,0.0,-11.6,30.31,WSW,253,3.0,6.0,57,0.00,,,0.00,Wunderground v.1.15,2013-01-22 03:25:00,
2013-01-21 21:30:00,0.0,-11.6,30.31,West,277,2.0,2.0,57,0.00,,,0.00,Wunderground v.1.15,2013-01-22 03:30:00,
2013-01-21 21:36:00,0.0,-11.3,30.31,WNW,301,1.0,2.0,58,0.00,,,0.00,Wunderground v.1.15,2013-01-22 03:36:00,
2013-01-21 21:41:00,0.0,-11.3,30.31,NW,305,1.0,6.0,58,0.00,,,0.00,Wunderground v.1.15,2013-01-22 03:41:00,
2013-01-21 21:46:00,0.0,-11.3,30.32,West,281,1.0,6.0,58,0.00,,,0.00,Wunderground v.1.15,2013-01-22 03:46:00,
2013-01-21 21:52:00,0.0,-11.3,30.32,WNW,285,2.0,4.0,58,0.00,,,0.00,Wunderground v.1.15,2013-01-22 03:52:00,
2013-01-21 21:58:00,-0.2,-11.5,30.32,NW,311,2.0,4.0,58,0.00,,,0.00,Wunderground v.1.15,2013-01-22 03:58:00,
2013-01-21 22:03:00,-0.2,-11.5,30.32,NNW,346,2.0,11.0,58,0.00,,,0.00,Wunderground v.1.15,2013-01-22 04:03:00,
2013-01-21 22:08:00,-0.2,-11.1,30.32,West,267,3.0,11.0,59,0.00,,,0.00,Wunderground v.1.15,2013-01-22 04:08:00,
2013-01-21 22:14:00,-0.2,-11.1,30.32,West,280,2.0,5.0,59,0.00,,,0.00,Wunderground v.1.15,2013-01-22 04:14:00,
2013-01-21 22:19:00,-0.4,-11.3,30.32,West,264,2.0,7.0,59,0.00,,,0.00,Wunderground v.1.15,2013-01-22 04:19:00,
2013-01-21 22:25:00,-0.4,-11.3,30.32,WNW,288,1.0,3.0,59,0.00,,,0.00,Wunderground v.1.15,2013-01-22 04:25:00,
2013-01-21 22:30:00,-0.4,-11.3,30.32,WNW,292,1.0,1.0,59,0.00,,,0.00,Wunderground v.1.15,2013-01-22 04:30:00,
2013-01-21 22:36:00,-0.4,-11.3,30.32,WNW,284,2.0,6.0,59,0.00,,,0.00,Wunderground v.1.15,2013-01-22 04:36:00,
2013-01-21 22:41:00,-0.4,-11.3,30.32,WNW,282,3.0,5.0,59,0.00,,,0.00,Wunderground v.1.15,2013-01-22 04:41:00,
2013-01-21 22:46:00,-0.6,-11.5,30.33,West,268,2.0,5.0,59,0.00,,,0.00,Wunderground v.1.15,2013-01-22 04:46:00,
2013-01-21 22:52:00,-0.6,-11.2,30.33,West,270,1.0,2.0,60,0.00,,,0.00,Wunderground v.1.15,2013-01-22 04:52:00,
2013-01-21 22:57:00,-0.6,-11.2,30.33,West,277,1.0,2.0,60,0.00,,,0.00,Wunderground v.1.15,2013-01-22 04:57:00,
2013-01-21 23:00:00,-0.6,-11.2,30.33,WNW,302,1.0,1.0,60,0.00,,,0.00,Wunderground v.1.15,2013-01-22 05:00:00,
2013-01-21 23:01:00,-0.6,-11.2,30.33,West,263,1.0,1.0,60,0.00,,,0.00,Wunderground v.1.15,2013-01-22 05:01:00,
2013-01-21 23:03:00,-0.6,-11.2,30.33,West,281,1.0,5.0,60,0.00,,,0.00,Wunderground v.1.15,2013-01-22 05:03:00,
2013-01-21 23:05:00,-0.6,-11.2,30.33,West,281,1.0,5.0,60,0.00,,,0.00,Wunderground v.1.15,2013-01-22 05:05:00,
2013-01-21 23:11:00,-0.6,-11.2,30.33,West,277,1.0,2.0,60,0.00,,,0.00,Wunderground v.1.15,2013-01-22 05:11:00,
2013-01-21 23:16:00,-0.8,-11.4,30.33,WNW,295,2.0,2.0,60,0.00,,,0.00,Wunderground v.1.15,2013-01-22 05:16:00,
2013-01-21 23:22:00,-0.8,-11.4,30.33,NW,309,1.0,3.0,60,0.00,,,0.00,Wunderground v.1.15,2013-01-22 05:22:00,
2013-01-21 23:27:00,-0.8,-11.4,30.33,WNW,298,1.0,3.0,60,0.00,,,0.00,Wunderground v.1.15,2013-01-22 05:27:00,
2013-01-21 23:32:00,-0.8,-11.4,30.33,NW,308,1.0,5.0,60,0.00,,,0.00,Wunderground v.1.15,2013-01-22 05:32:00,
2013-01-21 23:38:00,-1.0,-11.2,30.33,WNW,289,2.0,6.0,61,0.00,,,0.00,Wunderground v.1.15,2013-01-22 05:38:00,
2013-01-21 23:44:00,-1.0,-11.2,30.33,NW,313,2.0,4.0,61,0.00,,,0.00,Wunderground v.1.15,2013-01-22 05:44:00,
2013-01-21 23:50:00,-1.0,-11.2,30.33,West,271,1.0,1.0,61,0.00,,,0.00,Wunderground v.1.15,2013-01-22 05:50:00,
2013-01-21 23:56:00,-1.0,-11.2,30.33,WNW,287,1.0,4.0,61,0.00,,,0.00,Wunderground v.1.15,2013-01-22 05:56:00,